createdAt,value
2019-01-30T00:02:12.558Z,33.70
2019-01-30T00:04:42.758Z,31.85
2019-01-30T00:07:13.242Z,27.22
2019-01-30T00:09:43.738Z,25.15
2019-01-30T00:12:14.669Z,23.42
2019-01-30T00:14:45.456Z,24.47
2019-01-30T00:17:15.642Z,24.05
2019-01-30T00:19:46.000Z,23.42
2019-01-30T00:22:16.211Z,23.07
2019-01-30T00:24:46.812Z,23.67
2019-01-30T00:27:17.503Z,24.72
2019-01-30T00:29:47.945Z,24.02
2019-01-30T00:32:18.338Z,22.32
2019-01-30T00:34:49.296Z,24.57
2019-01-30T00:37:19.502Z,24.80
2019-01-30T00:39:50.066Z,22.13
2019-01-30T00:42:21.794Z,24.55
2019-01-30T00:44:52.058Z,22.32
2019-01-30T00:47:22.800Z,21.55
2019-01-30T00:49:53.271Z,22.75
2019-01-30T00:52:23.397Z,23.67
2019-01-30T00:54:53.534Z,21.97
2019-01-30T00:57:23.956Z,22.67
2019-01-30T00:59:54.402Z,24.12
2019-01-30T01:02:24.842Z,23.80
2019-01-30T01:04:55.198Z,22.75
2019-01-30T01:07:25.457Z,21.90
2019-01-30T01:09:56.282Z,23.35
2019-01-30T01:12:27.308Z,23.02
2019-01-30T01:14:57.820Z,23.20
2019-01-30T01:17:28.455Z,22.95
2019-01-30T01:19:58.792Z,22.07
2019-01-30T01:22:29.028Z,23.12
2019-01-30T01:24:59.506Z,20.90
2019-01-30T01:27:31.130Z,21.45
2019-01-30T01:30:01.958Z,22.00
2019-01-30T01:32:32.228Z,21.33
2019-01-30T01:35:02.576Z,22.62
2019-01-30T01:37:32.737Z,22.85
2019-01-30T01:40:03.245Z,20.92
2019-01-30T01:42:33.808Z,21.23
2019-01-30T01:45:05.402Z,21.90
2019-01-30T01:47:35.614Z,22.27
2019-01-30T01:50:12.058Z,21.77
2019-01-30T01:52:42.393Z,21.70
2019-01-30T01:55:13.373Z,20.50
2019-01-30T01:57:43.719Z,22.75
2019-01-30T02:00:22.191Z,20.97
2019-01-30T02:02:52.503Z,20.60
2019-01-30T02:05:23.895Z,22.17
2019-01-30T02:07:54.319Z,21.17
2019-01-30T02:10:25.739Z,21.23
2019-01-30T02:12:56.006Z,21.70
2019-01-30T02:15:26.171Z,20.50
2019-01-30T02:17:56.529Z,21.10
2019-01-30T02:20:32.646Z,20.10
2019-01-30T02:23:02.899Z,20.25
2019-01-30T02:25:33.324Z,21.93
2019-01-30T02:28:03.599Z,20.48
2019-01-30T02:30:33.933Z,21.73
2019-01-30T02:33:04.174Z,21.15
2019-01-30T02:35:34.456Z,20.92
2019-01-30T02:38:04.750Z,21.17
2019-01-30T02:40:35.447Z,20.02
2019-01-30T02:43:05.935Z,21.45
2019-01-30T02:45:36.266Z,20.25
2019-01-30T02:48:06.890Z,20.00
2019-01-30T02:50:37.693Z,20.70
2019-01-30T02:53:10.395Z,20.30
2019-01-30T02:55:40.559Z,20.02
2019-01-30T02:58:12.097Z,20.15
2019-01-30T03:00:42.621Z,20.00
2019-01-30T03:03:12.941Z,20.48
2019-01-30T03:05:43.141Z,21.15
2019-01-30T03:08:14.235Z,19.37
2019-01-30T03:10:44.507Z,20.08
2019-01-30T03:13:14.645Z,20.08
2019-01-30T03:15:45.083Z,21.37
2019-01-30T03:18:15.585Z,18.62
2019-01-30T03:20:46.232Z,20.97
2019-01-30T03:23:17.074Z,19.80
2019-01-30T03:25:47.290Z,19.27
2019-01-30T03:28:17.625Z,19.12
2019-01-30T03:30:47.855Z,21.87
2019-01-30T03:33:18.158Z,20.80
2019-01-30T03:35:48.386Z,19.67
2019-01-30T03:38:19.226Z,18.57
2019-01-30T03:40:49.975Z,19.23
2019-01-30T03:43:20.313Z,19.00
2019-01-30T03:45:51.803Z,19.12
2019-01-30T03:48:22.493Z,19.77
2019-01-30T03:50:53.241Z,20.62
2019-01-30T03:53:23.463Z,19.52
2019-01-30T03:55:53.769Z,19.48
2019-01-30T03:58:24.492Z,17.87
2019-01-30T04:00:55.854Z,17.75
2019-01-30T04:03:26.570Z,20.27
2019-01-30T04:05:56.505Z,17.80
2019-01-30T04:08:26.687Z,19.62
2019-01-30T04:10:56.832Z,20.00
2019-01-30T04:13:27.213Z,18.15
2019-01-30T04:15:57.643Z,18.12
2019-01-30T04:18:27.733Z,18.65
2019-01-30T04:20:58.098Z,18.23
2019-01-30T04:23:28.137Z,18.75
2019-01-30T04:25:58.266Z,18.27
2019-01-30T04:28:28.899Z,17.87
2019-01-30T04:30:59.221Z,17.98
2019-01-30T04:33:29.540Z,17.40
2019-01-30T04:36:00.115Z,18.45
2019-01-30T04:38:31.312Z,18.20
2019-01-30T04:41:01.949Z,17.05
2019-01-30T04:43:32.049Z,17.42
2019-01-30T04:46:02.296Z,17.92
2019-01-30T04:48:32.410Z,17.20
2019-01-30T04:51:02.518Z,18.60
2019-01-30T04:53:33.169Z,21.17
2019-01-30T04:56:03.412Z,19.25
2019-01-30T04:58:33.721Z,17.90
2019-01-30T05:01:04.660Z,16.65
2019-01-30T05:03:35.312Z,18.87
2019-01-30T05:06:05.995Z,18.32
2019-01-30T05:08:36.468Z,17.60
2019-01-30T05:11:06.858Z,20.20
2019-01-30T05:13:37.271Z,20.25
2019-01-30T05:16:07.538Z,18.12
2019-01-30T05:18:38.140Z,18.42
2019-01-30T05:21:09.989Z,18.55
2019-01-30T05:23:40.945Z,16.70
2019-01-30T05:26:10.924Z,17.05
2019-01-30T05:28:41.296Z,18.10
2019-01-30T05:31:11.491Z,18.00
2019-01-30T05:33:41.733Z,17.77
2019-01-30T05:36:12.031Z,16.65
2019-01-30T05:38:42.193Z,16.50
2019-01-30T05:41:12.192Z,20.60
2019-01-30T05:43:43.314Z,21.33
2019-01-30T05:46:13.568Z,19.07
2019-01-30T05:48:44.186Z,17.98
2019-01-30T05:51:14.818Z,18.87
2019-01-30T05:53:45.249Z,19.65
2019-01-30T05:56:15.905Z,20.62
2019-01-30T05:58:46.776Z,21.02
2019-01-30T06:01:18.460Z,19.45
2019-01-30T06:03:49.527Z,18.30
2019-01-30T06:06:20.900Z,21.20
2019-01-30T06:08:52.545Z,18.40
2019-01-30T06:11:22.953Z,18.02
2019-01-30T06:13:53.645Z,18.55
2019-01-30T06:16:24.349Z,19.52
2019-01-30T06:18:55.165Z,24.15
2019-01-30T06:21:25.591Z,25.50
2019-01-30T06:23:55.901Z,22.60
2019-01-30T06:26:26.445Z,21.45
2019-01-30T06:28:56.837Z,21.62
2019-01-30T06:31:27.282Z,19.65
2019-01-30T06:33:57.528Z,19.50
2019-01-30T06:36:28.123Z,19.15
2019-01-30T06:38:58.496Z,19.32
2019-01-30T06:41:28.901Z,18.92
2019-01-30T06:43:59.130Z,17.23
2019-01-30T06:46:29.544Z,17.55
2019-01-30T06:49:00.122Z,18.10
2019-01-30T06:51:30.513Z,17.30
2019-01-30T06:54:01.101Z,15.72
2019-01-30T06:56:31.435Z,17.65
2019-01-30T06:59:02.058Z,15.03
2019-01-30T07:01:33.400Z,15.35
2019-01-30T07:04:04.059Z,15.25
2019-01-30T07:06:35.661Z,16.85
2019-01-30T07:09:09.198Z,16.95
2019-01-30T07:11:39.932Z,14.70
2019-01-30T07:14:10.627Z,14.43
2019-01-30T07:16:43.515Z,15.48
2019-01-30T07:19:14.534Z,15.32
2019-01-30T07:21:45.258Z,15.03
2019-01-30T07:24:16.423Z,15.18
2019-01-30T07:26:47.372Z,14.70
2019-01-30T07:29:18.265Z,15.20
2019-01-30T07:31:49.018Z,14.03
2019-01-30T07:34:19.794Z,15.43
2019-01-30T07:36:51.384Z,15.40
2019-01-30T07:39:23.562Z,14.33
2019-01-30T07:41:54.243Z,14.13
2019-01-30T07:44:24.700Z,14.07
2019-01-30T07:46:55.551Z,15.05
2019-01-30T07:49:26.178Z,12.90
2019-01-30T07:51:56.748Z,14.75
2019-01-30T07:54:27.852Z,13.32
2019-01-30T07:56:58.317Z,13.75
2019-01-30T07:59:28.813Z,13.75
2019-01-30T08:01:59.431Z,13.72
2019-01-30T08:04:29.792Z,14.95
2019-01-30T08:07:02.846Z,16.82
2019-01-30T08:09:32.632Z,15.63
2019-01-30T08:12:03.210Z,15.20
2019-01-30T08:14:33.890Z,16.20
2019-01-30T08:17:04.883Z,14.60
2019-01-30T08:19:35.417Z,14.45
2019-01-30T08:22:06.335Z,13.85
2019-01-30T08:24:37.102Z,15.10
2019-01-30T08:27:07.527Z,15.35
2019-01-30T08:29:38.204Z,15.45
2019-01-30T08:32:08.803Z,14.00
2019-01-30T08:34:39.527Z,14.75
2019-01-30T08:37:09.937Z,18.00
2019-01-30T08:39:40.164Z,19.85
2019-01-30T08:42:10.696Z,19.48
2019-01-30T08:44:46.903Z,15.50
2019-01-30T08:47:12.713Z,13.90
2019-01-30T08:49:43.108Z,16.27
2019-01-30T08:52:13.726Z,19.57
2019-01-30T08:54:44.059Z,15.70
2019-01-30T08:57:14.937Z,17.30
2019-01-30T08:59:45.422Z,21.23
2019-01-30T09:02:15.717Z,15.90
2019-01-30T09:04:47.651Z,17.07
2019-01-30T09:07:18.170Z,14.68
2019-01-30T09:09:48.786Z,14.50
2019-01-30T09:12:19.188Z,14.20
2019-01-30T09:14:49.641Z,16.40
2019-01-30T09:17:19.680Z,13.70
2019-01-30T09:19:49.874Z,15.58
2019-01-30T09:22:20.082Z,14.73
2019-01-30T09:24:50.170Z,14.20
2019-01-30T09:27:20.408Z,15.23
2019-01-30T09:29:50.978Z,15.95
2019-01-30T09:32:22.846Z,14.23
2019-01-30T09:34:52.954Z,14.75
2019-01-30T09:37:23.179Z,14.58
2019-01-30T09:39:53.759Z,13.25
2019-01-30T09:42:24.437Z,14.50
2019-01-30T09:44:54.655Z,11.30
2019-01-30T09:47:24.971Z,11.68
2019-01-30T09:49:55.076Z,10.88
2019-01-30T09:52:26.867Z,10.53
2019-01-30T09:54:57.578Z,9.58
2019-01-30T09:57:27.997Z,9.60
2019-01-30T09:59:58.462Z,10.40
2019-01-30T10:02:28.909Z,10.30
2019-01-30T10:04:59.094Z,8.10
2019-01-30T10:07:29.691Z,7.85
2019-01-30T10:10:00.353Z,8.35
2019-01-30T10:12:30.833Z,9.28
2019-01-30T10:15:01.397Z,8.03
2019-01-30T10:17:31.840Z,8.13
2019-01-30T10:20:02.324Z,7.83
2019-01-30T10:22:32.802Z,7.75
2019-01-30T10:25:03.395Z,7.12
2019-01-30T10:27:33.818Z,7.37
2019-01-30T10:30:06.276Z,7.85
2019-01-30T10:32:36.733Z,7.53
2019-01-30T10:35:07.895Z,7.37
2019-01-30T10:37:38.005Z,8.95
2019-01-30T10:40:14.127Z,7.90
2019-01-30T10:42:44.814Z,6.80
2019-01-30T10:45:15.556Z,7.35
2019-01-30T10:47:45.859Z,7.10
2019-01-30T10:50:19.189Z,6.95
2019-01-30T10:52:49.596Z,7.08
2019-01-30T10:55:27.762Z,7.43
2019-01-30T10:57:59.634Z,6.43
2019-01-30T11:00:32.620Z,7.85
2019-01-30T11:03:02.832Z,7.05
2019-01-30T11:05:33.016Z,8.50
2019-01-30T11:08:03.193Z,6.87
2019-01-30T11:10:33.628Z,7.92
2019-01-30T11:13:04.286Z,7.50
2019-01-30T11:15:35.424Z,7.28
2019-01-30T11:18:08.384Z,8.23
2019-01-30T11:20:39.176Z,7.30
2019-01-30T11:23:09.675Z,7.42
2019-01-30T11:25:45.295Z,8.18
2019-01-30T11:28:15.743Z,7.67
2019-01-30T11:30:45.844Z,8.20
2019-01-30T11:33:16.245Z,7.80
2019-01-30T11:35:46.671Z,7.50
2019-01-30T11:38:17.460Z,7.22
2019-01-30T11:40:47.788Z,8.08
2019-01-30T11:43:18.117Z,8.23
2019-01-30T11:45:48.636Z,7.67
2019-01-30T11:48:18.711Z,7.87
2019-01-30T11:50:48.909Z,7.67
2019-01-30T11:53:20.198Z,7.78
2019-01-30T11:55:51.400Z,7.67
2019-01-30T11:58:21.888Z,7.65
2019-01-30T12:00:56.652Z,7.40
2019-01-30T12:03:27.167Z,7.62
2019-01-30T12:05:57.512Z,7.63
2019-01-30T12:08:27.879Z,6.87
2019-01-30T12:10:58.116Z,6.85
2019-01-30T12:13:28.383Z,6.92
2019-01-30T12:15:58.856Z,7.22
2019-01-30T12:18:29.104Z,7.30
2019-01-30T12:20:59.318Z,6.50
2019-01-30T12:23:31.181Z,6.15
2019-01-30T12:26:02.781Z,7.08
2019-01-30T12:28:33.453Z,6.67
2019-01-30T12:31:03.544Z,6.08
2019-01-30T12:33:33.943Z,6.75
2019-01-30T12:36:04.911Z,6.87
2019-01-30T12:38:35.238Z,7.60
2019-01-30T12:41:05.912Z,7.03
2019-01-30T12:43:36.474Z,6.95
2019-01-30T12:46:06.652Z,7.12
2019-01-30T12:48:37.136Z,6.58
2019-01-30T12:51:07.615Z,6.80
2019-01-30T12:53:38.213Z,6.80
2019-01-30T12:56:08.580Z,7.45
2019-01-30T12:58:39.279Z,6.58
2019-01-30T13:01:09.619Z,6.97
2019-01-30T13:03:40.067Z,6.67
2019-01-30T13:06:10.602Z,6.45
2019-01-30T13:08:41.261Z,6.80
2019-01-30T13:11:11.321Z,7.35
2019-01-30T13:13:41.526Z,9.10
2019-01-30T13:16:11.894Z,6.00
2019-01-30T13:18:42.089Z,5.95
2019-01-30T13:21:12.469Z,6.17
2019-01-30T13:23:42.727Z,5.80
2019-01-30T13:26:13.066Z,5.80
2019-01-30T13:28:43.379Z,5.50
2019-01-30T13:31:13.629Z,6.00
2019-01-30T13:33:44.471Z,5.30
2019-01-30T13:36:14.984Z,5.35
2019-01-30T13:38:45.208Z,5.75
2019-01-30T13:41:15.624Z,6.58
2019-01-30T13:43:45.862Z,5.75
2019-01-30T13:46:16.082Z,6.42
2019-01-30T13:48:46.211Z,5.60
2019-01-30T13:51:16.726Z,6.58
2019-01-30T13:53:47.297Z,6.00
2019-01-30T13:56:17.445Z,6.87
2019-01-30T13:58:47.859Z,6.53
2019-01-30T14:01:18.330Z,6.95
2019-01-30T14:03:49.816Z,7.12
2019-01-30T14:06:20.183Z,6.42
2019-01-30T14:08:50.362Z,6.80
2019-01-30T14:11:20.888Z,5.92
2019-01-30T14:13:51.154Z,5.67
2019-01-30T14:16:22.290Z,5.40
2019-01-30T14:18:52.917Z,5.35
2019-01-30T14:21:23.635Z,5.95
2019-01-30T14:23:54.482Z,5.47
2019-01-30T14:26:24.968Z,5.70
2019-01-30T14:28:55.654Z,5.47
2019-01-30T14:31:26.223Z,5.28
2019-01-30T14:33:57.067Z,5.72
2019-01-30T14:36:27.769Z,7.20
2019-01-30T14:38:58.245Z,5.35
2019-01-30T14:41:28.791Z,5.50
2019-01-30T14:43:58.986Z,4.80
2019-01-30T14:46:29.196Z,6.22
2019-01-30T14:48:59.554Z,5.35
2019-01-30T14:51:29.881Z,4.90
2019-01-30T14:54:00.381Z,5.62
2019-01-30T14:56:30.790Z,5.20
2019-01-30T14:59:01.928Z,6.40
2019-01-30T15:01:33.733Z,5.83
2019-01-30T15:04:04.024Z,5.37
2019-01-30T15:06:34.222Z,5.42
2019-01-30T15:09:08.093Z,5.95
2019-01-30T15:11:38.352Z,6.53
2019-01-30T15:14:08.731Z,6.83
2019-01-30T15:16:39.103Z,7.22
2019-01-30T15:19:09.288Z,6.97
2019-01-30T15:21:40.855Z,6.65
2019-01-30T15:24:11.441Z,5.97
2019-01-30T15:26:42.046Z,7.17
2019-01-30T15:29:12.314Z,7.58
2019-01-30T15:31:42.824Z,6.53
2019-01-30T15:34:13.067Z,6.62
2019-01-30T15:36:43.308Z,6.12
2019-01-30T15:39:13.799Z,7.30
2019-01-30T15:41:43.876Z,7.95
2019-01-30T15:44:14.355Z,8.18
2019-01-30T15:46:44.572Z,7.12
2019-01-30T15:49:14.682Z,6.85
2019-01-30T15:51:45.294Z,7.35
2019-01-30T15:54:18.560Z,7.42
2019-01-30T15:56:47.326Z,7.08
2019-01-30T15:59:17.623Z,9.15
2019-01-30T16:01:47.742Z,8.83
2019-01-30T16:04:17.926Z,7.22
2019-01-30T16:06:48.084Z,11.03
2019-01-30T16:09:18.437Z,9.08
2019-01-30T16:11:50.465Z,9.10
2019-01-30T16:14:20.396Z,8.43
2019-01-30T16:16:52.112Z,9.68
2019-01-30T16:19:22.330Z,10.32
2019-01-30T16:21:52.792Z,9.15
2019-01-30T16:24:23.044Z,8.45
2019-01-30T16:26:53.710Z,8.60
2019-01-30T16:29:24.108Z,8.13
2019-01-30T16:31:54.529Z,9.65
2019-01-30T16:34:24.828Z,8.50
2019-01-30T16:36:55.173Z,10.13
2019-01-30T16:39:25.149Z,9.18
2019-01-30T16:41:55.467Z,10.78
2019-01-30T16:44:26.053Z,8.98
2019-01-30T16:46:56.361Z,9.28
2019-01-30T16:49:26.761Z,9.58
2019-01-30T16:51:57.057Z,9.88
2019-01-30T16:54:27.182Z,9.00
2019-01-30T16:56:57.242Z,13.55
2019-01-30T16:59:27.578Z,19.12
2019-01-30T17:01:57.890Z,12.70
2019-01-30T17:04:28.106Z,8.35
2019-01-30T17:06:58.590Z,10.20
2019-01-30T17:09:28.636Z,10.93
2019-01-30T17:11:59.460Z,9.70
2019-01-30T17:14:29.684Z,10.60
2019-01-30T17:17:00.186Z,9.93
2019-01-30T17:19:30.380Z,10.65
2019-01-30T17:22:00.779Z,10.13
2019-01-30T17:24:31.045Z,9.50
2019-01-30T17:27:01.216Z,9.63
2019-01-30T17:29:31.175Z,9.23
2019-01-30T17:32:01.362Z,8.70
2019-01-30T17:34:31.521Z,8.65
2019-01-30T17:37:01.718Z,8.50
2019-01-30T17:39:31.986Z,9.85
2019-01-30T17:42:02.165Z,10.40
2019-01-30T17:44:32.447Z,9.88
2019-01-30T17:47:02.756Z,9.23
2019-01-30T17:49:33.161Z,9.25
2019-01-30T17:52:03.491Z,11.40
2019-01-30T17:54:34.133Z,11.22
2019-01-30T17:57:04.630Z,11.20
2019-01-30T17:59:34.855Z,10.78
2019-01-30T18:02:07.228Z,11.75
2019-01-30T18:04:37.429Z,11.75
2019-01-30T18:07:07.759Z,12.07
2019-01-30T18:09:38.104Z,10.65
2019-01-30T18:12:08.412Z,10.25
2019-01-30T18:14:38.447Z,10.00
2019-01-30T18:17:08.874Z,10.40
2019-01-30T18:19:39.390Z,11.10
2019-01-30T18:22:09.925Z,11.10
2019-01-30T18:24:40.105Z,10.53
2019-01-30T18:27:10.432Z,10.65
2019-01-30T18:29:40.785Z,13.05
2019-01-30T18:32:11.031Z,11.43
2019-01-30T18:34:41.728Z,11.28
2019-01-30T18:37:12.006Z,10.95
2019-01-30T18:39:42.183Z,10.90
2019-01-30T18:42:12.535Z,11.03
2019-01-30T18:44:42.704Z,12.28
2019-01-30T18:47:13.039Z,11.35
2019-01-30T18:49:43.281Z,13.10
2019-01-30T18:52:13.615Z,12.68
2019-01-30T18:54:43.719Z,13.43
2019-01-30T18:57:13.968Z,11.85
2019-01-30T18:59:44.375Z,10.90
2019-01-30T19:02:14.535Z,11.55
2019-01-30T19:04:45.120Z,11.83
2019-01-30T19:07:15.319Z,11.83
2019-01-30T19:09:45.886Z,12.15
2019-01-30T19:12:16.229Z,11.45
2019-01-30T19:14:46.456Z,11.10
2019-01-30T19:17:16.989Z,10.55
2019-01-30T19:19:47.841Z,12.58
2019-01-30T19:22:18.491Z,11.08
2019-01-30T19:24:49.973Z,17.23
2019-01-30T19:27:20.359Z,12.82
2019-01-30T19:32:40.467Z,10.20
2019-01-30T19:35:12.372Z,10.40
2019-01-30T19:37:42.651Z,11.45
2019-01-30T19:40:14.417Z,11.88
2019-01-30T19:42:45.096Z,12.80
2019-01-30T19:45:18.440Z,11.08
2019-01-30T19:47:48.958Z,11.45
2019-01-30T19:50:24.780Z,12.55
2019-01-30T19:52:55.876Z,10.72
2019-01-30T19:55:25.976Z,12.45
2019-01-30T19:57:57.030Z,11.05
2019-01-30T20:00:29.717Z,11.20
2019-01-30T20:03:01.048Z,10.25
2019-01-30T20:05:31.615Z,11.55
2019-01-30T20:08:03.571Z,11.05
2019-01-30T20:10:36.024Z,9.60
2019-01-30T20:13:06.786Z,10.13
2019-01-30T20:15:37.254Z,9.75
2019-01-30T20:18:08.108Z,9.83
2019-01-30T20:20:38.911Z,10.10
2019-01-30T20:23:09.386Z,9.25
2019-01-30T20:25:43.855Z,11.10
2019-01-30T20:28:14.010Z,10.98
2019-01-30T20:30:44.024Z,11.10
2019-01-30T20:33:14.302Z,11.20
2019-01-30T20:35:44.761Z,11.18
2019-01-30T20:38:15.191Z,11.28
2019-01-30T20:40:45.492Z,12.05
2019-01-30T20:43:15.833Z,16.20
2019-01-30T20:45:45.963Z,10.82
2019-01-30T20:48:16.532Z,13.80
2019-01-30T20:50:46.744Z,14.15
2019-01-30T20:53:16.980Z,13.13
2019-01-30T20:55:47.292Z,15.70
2019-01-30T20:58:17.585Z,14.55
2019-01-30T21:00:47.777Z,12.33
2019-01-30T21:03:17.912Z,14.40
2019-01-30T21:05:48.119Z,14.53
2019-01-30T21:08:18.612Z,13.55
2019-01-30T21:10:48.842Z,12.60
2019-01-30T21:13:19.549Z,13.03
2019-01-30T21:15:49.850Z,14.18
2019-01-30T21:18:20.237Z,12.37
2019-01-30T21:20:50.824Z,15.30
2019-01-30T21:23:20.976Z,11.65
2019-01-30T21:25:51.128Z,11.08
2019-01-30T21:28:21.230Z,12.63
2019-01-30T21:30:51.618Z,11.40
2019-01-30T21:33:21.850Z,13.20
2019-01-30T21:35:51.907Z,11.43
2019-01-30T21:38:22.253Z,11.83
2019-01-30T21:40:52.432Z,12.43
2019-01-30T21:43:22.748Z,11.53
2019-01-30T21:45:53.166Z,13.13
2019-01-30T21:48:23.375Z,12.03
2019-01-30T21:50:53.757Z,12.90
2019-01-30T21:53:24.044Z,12.20
2019-01-30T21:55:54.350Z,11.45
2019-01-30T21:58:24.915Z,11.25
2019-01-30T22:00:54.877Z,12.03
2019-01-30T22:03:25.072Z,10.88
2019-01-30T22:05:55.177Z,10.95
2019-01-30T22:08:25.457Z,12.80
2019-01-30T22:10:55.753Z,11.43
2019-01-30T22:13:26.006Z,11.33
2019-01-30T22:15:56.098Z,11.60
2019-01-30T22:18:26.206Z,11.80
2019-01-30T22:20:56.574Z,12.20
2019-01-30T22:23:26.769Z,11.65
2019-01-30T22:25:56.913Z,11.30
2019-01-30T22:28:27.356Z,12.25
2019-01-30T22:30:57.597Z,11.05
2019-01-30T22:33:27.895Z,11.28
2019-01-30T22:35:58.219Z,11.20
2019-01-30T22:38:28.728Z,11.15
2019-01-30T22:40:58.973Z,11.15
2019-01-30T22:43:29.163Z,11.90
2019-01-30T22:45:59.335Z,11.70
2019-01-30T22:48:30.136Z,11.75
2019-01-30T22:51:00.547Z,10.80
2019-01-30T22:53:31.106Z,11.05
2019-01-30T22:56:01.972Z,11.38
2019-01-30T22:58:32.255Z,12.82
2019-01-30T23:01:10.074Z,10.93
2019-01-30T23:03:49.133Z,12.18
2019-01-30T23:06:28.194Z,14.90
2019-01-30T23:09:20.578Z,18.75
2019-01-30T23:12:03.032Z,17.95
2019-01-30T23:14:36.524Z,14.58
2019-01-30T23:17:22.414Z,18.15
2019-01-30T23:19:55.700Z,17.15
2019-01-30T23:22:57.938Z,17.20
2019-01-30T23:25:49.741Z,13.25
2019-01-30T23:28:26.412Z,12.70
2019-01-30T23:31:02.978Z,13.15
2019-01-30T23:33:42.650Z,12.13
2019-01-30T23:36:18.954Z,11.85
2019-01-30T23:39:05.362Z,11.38
2019-01-30T23:41:38.557Z,12.43
2019-01-30T23:44:29.648Z,12.10
2019-01-30T23:47:15.159Z,11.35
2019-01-30T23:49:54.550Z,11.57
2019-01-30T23:52:33.634Z,12.65
2019-01-30T23:55:25.149Z,11.85
2019-01-30T23:58:08.056Z,11.80
